Terminal Aerodrome Forecast
Issued by NWS

Home | Current Version | Previous Version | Text Only | Print | Product List | Glossary On
Versions: 1 2 3 4 5 6 7 8 9 10 11 12 13 14 15 16 17 18
714
FTUS43 KGRR 240721 AAA
TAFBTL
TAF AMD
KBTL 240721Z 2407/2506 VRB05KT P6SM -RA BKN070
      TEMPO 2407/2409 25012G22KT 3SM TSRA BKN040CB
     FM240900 19008KT P6SM VCTS BKN060CB
     FM241500 22012G22KT P6SM BKN150
     FM242200 23010G20KT P6SM VCTS BKN040CB=

USA.gov is the U.S. government's official web portal to all federal, state and local government web resources and services.